sensor_id;sensor_type;location;lat;lon;timestamp;P1;durP1;ratioP1;P2;durP2;ratioP2
71154;SDS011;59375;53.216;5.728;2022-08-01T00:02:06;8.63;;;3.95;;
71154;SDS011;59375;53.216;5.728;2022-08-01T00:04:32;8.77;;;4.20;;
71154;SDS011;59375;53.216;5.728;2022-08-01T00:06:58;8.85;;;3.83;;
71154;SDS011;59375;53.216;5.728;2022-08-01T00:09:23;8.77;;;4.20;;
71154;SDS011;59375;53.216;5.728;2022-08-01T00:11:49;10.02;;;4.40;;
71154;SDS011;59375;53.216;5.728;2022-08-01T00:14:14;8.18;;;3.92;;
71154;SDS011;59375;53.216;5.728;2022-08-01T00:16:40;6.82;;;4.15;;
71154;SDS011;59375;53.216;5.728;2022-08-01T00:19:05;9.32;;;4.85;;
71154;SDS011;59375;53.216;5.728;2022-08-01T00:21:31;9.65;;;4.80;;
71154;SDS011;59375;53.216;5.728;2022-08-01T00:23:56;8.75;;;4.53;;
71154;SDS011;59375;53.216;5.728;2022-08-01T00:26:22;11.20;;;4.93;;
71154;SDS011;59375;53.216;5.728;2022-08-01T00:28:47;7.65;;;4.30;;
71154;SDS011;59375;53.216;5.728;2022-08-01T00:31:13;10.68;;;4.32;;
71154;SDS011;59375;53.216;5.728;2022-08-01T00:33:38;9.35;;;4.45;;
71154;SDS011;59375;53.216;5.728;2022-08-01T00:36:04;7.63;;;4.07;;
71154;SDS011;59375;53.216;5.728;2022-08-01T00:38:29;9.57;;;4.15;;
71154;SDS011;59375;53.216;5.728;2022-08-01T00:40:55;7.43;;;3.60;;
71154;SDS011;59375;53.216;5.728;2022-08-01T00:43:20;10.07;;;3.83;;
71154;SDS011;59375;53.216;5.728;2022-08-01T00:45:46;8.93;;;3.63;;
71154;SDS011;59375;53.216;5.728;2022-08-01T00:48:12;9.43;;;3.50;;
71154;SDS011;59375;53.216;5.728;2022-08-01T00:50:37;10.15;;;3.72;;
71154;SDS011;59375;53.216;5.728;2022-08-01T00:53:03;6.65;;;3.22;;
71154;SDS011;59375;53.216;5.728;2022-08-01T00:55:29;8.90;;;3.45;;
71154;SDS011;59375;53.216;5.728;2022-08-01T00:57:56;8.77;;;3.42;;
71154;SDS011;59375;53.216;5.728;2022-08-01T01:00:22;9.15;;;3.60;;
71154;SDS011;59375;53.216;5.728;2022-08-01T01:02:48;8.18;;;3.22;;
71154;SDS011;59375;53.216;5.728;2022-08-01T01:05:14;7.07;;;3.10;;
71154;SDS011;59375;53.216;5.728;2022-08-01T01:10:37;10.15;;;3.30;;
71154;SDS011;59375;53.216;5.728;2022-08-01T01:13:13;9.13;;;3.10;;
71154;SDS011;59375;53.216;5.728;2022-08-01T01:15:58;8.70;;;3.05;;
71154;SDS011;59375;53.216;5.728;2022-08-01T01:19:08;8.38;;;2.88;;
71154;SDS011;59375;53.216;5.728;2022-08-01T01:29:44;14.20;;;3.90;;
71154;SDS011;59375;53.216;5.728;2022-08-01T01:32:16;10.52;;;3.83;;
71154;SDS011;59375;53.216;5.728;2022-08-01T01:34:47;13.98;;;4.43;;
71154;SDS011;59375;53.216;5.728;2022-08-01T01:37:15;18.83;;;4.60;;
71154;SDS011;59375;53.216;5.728;2022-08-01T01:39:43;18.75;;;5.18;;
71154;SDS011;59375;53.216;5.728;2022-08-01T01:42:11;13.40;;;4.05;;
71154;SDS011;59375;53.216;5.728;2022-08-01T01:44:38;15.60;;;4.10;;
71154;SDS011;59375;53.216;5.728;2022-08-01T01:47:04;15.98;;;4.78;;
71154;SDS011;59375;53.216;5.728;2022-08-01T01:49:31;14.65;;;4.13;;
71154;SDS011;59375;53.216;5.728;2022-08-01T01:51:58;14.30;;;4.15;;
71154;SDS011;59375;53.216;5.728;2022-08-01T01:54:30;14.27;;;3.75;;
71154;SDS011;59375;53.216;5.728;2022-08-01T01:56:58;11.90;;;3.67;;
71154;SDS011;59375;53.216;5.728;2022-08-01T01:59:27;14.05;;;3.83;;
71154;SDS011;59375;53.216;5.728;2022-08-01T02:01:55;11.40;;;3.53;;
71154;SDS011;59375;53.216;5.728;2022-08-01T02:04:24;13.05;;;3.75;;
71154;SDS011;59375;53.216;5.728;2022-08-01T02:06:52;12.48;;;3.88;;
71154;SDS011;59375;53.216;5.728;2022-08-01T02:09:19;16.58;;;3.83;;
71154;SDS011;59375;53.216;5.728;2022-08-01T02:11:49;16.25;;;3.97;;
71154;SDS011;59375;53.216;5.728;2022-08-01T02:14:16;17.55;;;4.18;;
71154;SDS011;59375;53.216;5.728;2022-08-01T02:16:45;12.40;;;3.83;;
71154;SDS011;59375;53.216;5.728;2022-08-01T02:19:13;9.77;;;3.92;;
71154;SDS011;59375;53.216;5.728;2022-08-01T02:24:14;15.13;;;4.47;;
71154;SDS011;59375;53.216;5.728;2022-08-01T02:26:47;17.52;;;4.32;;
71154;SDS011;59375;53.216;5.728;2022-08-01T02:29:17;12.43;;;3.75;;
71154;SDS011;59375;53.216;5.728;2022-08-01T02:31:46;11.75;;;3.92;;
71154;SDS011;59375;53.216;5.728;2022-08-01T02:34:15;11.02;;;3.67;;
71154;SDS011;59375;53.216;5.728;2022-08-01T02:36:43;10.23;;;3.00;;
71154;SDS011;59375;53.216;5.728;2022-08-01T02:39:13;11.55;;;4.18;;
71154;SDS011;59375;53.216;5.728;2022-08-01T02:41:40;10.65;;;3.55;;
71154;SDS011;59375;53.216;5.728;2022-08-01T02:44:09;9.27;;;3.70;;
71154;SDS011;59375;53.216;5.728;2022-08-01T02:46:40;12.35;;;3.88;;
71154;SDS011;59375;53.216;5.728;2022-08-01T02:49:09;8.98;;;3.55;;
71154;SDS011;59375;53.216;5.728;2022-08-01T02:51:37;13.52;;;3.67;;
71154;SDS011;59375;53.216;5.728;2022-08-01T02:54:05;10.90;;;3.55;;
71154;SDS011;59375;53.216;5.728;2022-08-01T02:56:33;9.90;;;3.35;;
71154;SDS011;59375;53.216;5.728;2022-08-01T02:59:01;14.75;;;3.53;;
71154;SDS011;59375;53.216;5.728;2022-08-01T03:01:28;13.80;;;3.50;;
71154;SDS011;59375;53.216;5.728;2022-08-01T03:03:55;10.65;;;3.22;;
71154;SDS011;59375;53.216;5.728;2022-08-01T03:06:21;11.40;;;3.47;;
71154;SDS011;59375;53.216;5.728;2022-08-01T03:08:47;10.95;;;3.55;;
71154;SDS011;59375;53.216;5.728;2022-08-01T03:11:13;13.23;;;3.30;;
71154;SDS011;59375;53.216;5.728;2022-08-01T03:13:41;14.10;;;3.47;;
71154;SDS011;59375;53.216;5.728;2022-08-01T03:16:09;13.93;;;3.50;;
71154;SDS011;59375;53.216;5.728;2022-08-01T03:18:36;18.02;;;3.67;;
71154;SDS011;59375;53.216;5.728;2022-08-01T03:21:04;18.10;;;3.78;;
71154;SDS011;59375;53.216;5.728;2022-08-01T03:23:31;16.05;;;3.90;;
71154;SDS011;59375;53.216;5.728;2022-08-01T03:25:58;17.58;;;4.03;;
71154;SDS011;59375;53.216;5.728;2022-08-01T03:28:26;15.48;;;3.78;;
71154;SDS011;59375;53.216;5.728;2022-08-01T03:30:52;11.77;;;3.33;;
71154;SDS011;59375;53.216;5.728;2022-08-01T03:33:18;15.52;;;3.55;;
71154;SDS011;59375;53.216;5.728;2022-08-01T03:35:45;13.45;;;3.60;;
71154;SDS011;59375;53.216;5.728;2022-08-01T03:38:13;17.95;;;3.75;;
71154;SDS011;59375;53.216;5.728;2022-08-01T03:40:45;15.80;;;3.47;;
71154;SDS011;59375;53.216;5.728;2022-08-01T03:43:15;18.17;;;4.10;;
71154;SDS011;59375;53.216;5.728;2022-08-01T03:45:54;15.20;;;4.05;;
71154;SDS011;59375;53.216;5.728;2022-08-01T03:48:22;20.73;;;4.05;;
71154;SDS011;59375;53.216;5.728;2022-08-01T03:50:56;15.27;;;3.55;;
71154;SDS011;59375;53.216;5.728;2022-08-01T03:53:24;18.75;;;3.38;;
71154;SDS011;59375;53.216;5.728;2022-08-01T03:55:53;13.60;;;3.20;;
71154;SDS011;59375;53.216;5.728;2022-08-01T03:58:20;15.30;;;3.65;;
71154;SDS011;59375;53.216;5.728;2022-08-01T04:00:46;15.15;;;3.35;;
71154;SDS011;59375;53.216;5.728;2022-08-01T04:03:13;13.57;;;3.70;;
71154;SDS011;59375;53.216;5.728;2022-08-01T04:05:42;18.73;;;3.97;;
71154;SDS011;59375;53.216;5.728;2022-08-01T04:08:08;13.55;;;3.80;;
71154;SDS011;59375;53.216;5.728;2022-08-01T04:10:34;15.07;;;3.17;;
71154;SDS011;59375;53.216;5.728;2022-08-01T04:12:59;15.68;;;3.67;;
71154;SDS011;59375;53.216;5.728;2022-08-01T04:15:25;18.08;;;3.60;;
71154;SDS011;59375;53.216;5.728;2022-08-01T04:17:51;19.10;;;3.90;;
71154;SDS011;59375;53.216;5.728;2022-08-01T04:20:16;16.30;;;3.58;;
71154;SDS011;59375;53.216;5.728;2022-08-01T04:22:42;15.18;;;3.97;;
71154;SDS011;59375;53.216;5.728;2022-08-01T04:25:17;18.08;;;4.30;;
71154;SDS011;59375;53.216;5.728;2022-08-01T04:27:49;16.02;;;3.85;;
71154;SDS011;59375;53.216;5.728;2022-08-01T04:30:22;17.45;;;3.97;;
71154;SDS011;59375;53.216;5.728;2022-08-01T04:32:55;15.35;;;3.55;;
71154;SDS011;59375;53.216;5.728;2022-08-01T04:35:23;21.23;;;4.30;;
71154;SDS011;59375;53.216;5.728;2022-08-01T04:37:51;15.00;;;3.83;;
71154;SDS011;59375;53.216;5.728;2022-08-01T04:40:18;20.15;;;4.40;;
71154;SDS011;59375;53.216;5.728;2022-08-01T04:42:46;18.83;;;3.78;;
71154;SDS011;59375;53.216;5.728;2022-08-01T04:45:13;16.08;;;3.55;;
71154;SDS011;59375;53.216;5.728;2022-08-01T04:47:39;18.92;;;4.45;;
71154;SDS011;59375;53.216;5.728;2022-08-01T04:50:07;14.63;;;3.50;;
71154;SDS011;59375;53.216;5.728;2022-08-01T04:52:34;14.82;;;3.38;;
71154;SDS011;59375;53.216;5.728;2022-08-01T04:55:01;16.67;;;3.70;;
71154;SDS011;59375;53.216;5.728;2022-08-01T04:57:27;14.88;;;3.60;;
71154;SDS011;59375;53.216;5.728;2022-08-01T04:59:52;16.73;;;3.67;;
71154;SDS011;59375;53.216;5.728;2022-08-01T05:02:22;15.85;;;3.90;;
71154;SDS011;59375;53.216;5.728;2022-08-01T05:04:48;14.02;;;3.60;;
71154;SDS011;59375;53.216;5.728;2022-08-01T05:07:13;20.45;;;3.90;;
71154;SDS011;59375;53.216;5.728;2022-08-01T05:09:40;17.25;;;3.50;;
71154;SDS011;59375;53.216;5.728;2022-08-01T05:12:07;15.95;;;3.83;;
71154;SDS011;59375;53.216;5.728;2022-08-01T05:14:33;15.70;;;3.92;;
71154;SDS011;59375;53.216;5.728;2022-08-01T05:17:00;14.20;;;3.20;;
71154;SDS011;59375;53.216;5.728;2022-08-01T05:19:28;17.63;;;4.05;;
71154;SDS011;59375;53.216;5.728;2022-08-01T05:21:55;14.77;;;4.03;;
71154;SDS011;59375;53.216;5.728;2022-08-01T05:24:21;17.40;;;3.80;;
71154;SDS011;59375;53.216;5.728;2022-08-01T05:26:47;16.98;;;4.05;;
71154;SDS011;59375;53.216;5.728;2022-08-01T05:29:13;19.15;;;4.10;;
71154;SDS011;59375;53.216;5.728;2022-08-01T05:31:39;19.02;;;4.40;;
71154;SDS011;59375;53.216;5.728;2022-08-01T05:34:05;17.17;;;3.78;;
71154;SDS011;59375;53.216;5.728;2022-08-01T05:36:31;16.55;;;3.95;;
71154;SDS011;59375;53.216;5.728;2022-08-01T05:38:56;15.38;;;3.72;;
71154;SDS011;59375;53.216;5.728;2022-08-01T05:41:22;12.60;;;3.35;;
71154;SDS011;59375;53.216;5.728;2022-08-01T05:43:47;12.70;;;3.05;;
71154;SDS011;59375;53.216;5.728;2022-08-01T05:46:13;13.40;;;3.28;;
71154;SDS011;59375;53.216;5.728;2022-08-01T05:48:38;12.10;;;3.60;;
71154;SDS011;59375;53.216;5.728;2022-08-01T05:51:04;18.45;;;3.80;;
71154;SDS011;59375;53.216;5.728;2022-08-01T05:53:29;13.38;;;3.40;;
71154;SDS011;59375;53.216;5.728;2022-08-01T05:55:55;15.65;;;3.60;;
71154;SDS011;59375;53.216;5.728;2022-08-01T05:58:21;15.65;;;3.80;;
71154;SDS011;59375;53.216;5.728;2022-08-01T06:00:47;12.32;;;3.35;;
71154;SDS011;59375;53.216;5.728;2022-08-01T06:03:12;15.60;;;3.90;;
71154;SDS011;59375;53.216;5.728;2022-08-01T06:05:39;14.65;;;4.05;;
71154;SDS011;59375;53.216;5.728;2022-08-01T06:08:05;12.82;;;3.67;;
71154;SDS011;59375;53.216;5.728;2022-08-01T06:10:30;15.57;;;3.53;;
71154;SDS011;59375;53.216;5.728;2022-08-01T06:12:56;13.80;;;3.42;;
71154;SDS011;59375;53.216;5.728;2022-08-01T06:15:21;12.90;;;2.95;;
71154;SDS011;59375;53.216;5.728;2022-08-01T06:17:47;14.43;;;3.42;;
71154;SDS011;59375;53.216;5.728;2022-08-01T06:20:12;16.60;;;3.17;;
71154;SDS011;59375;53.216;5.728;2022-08-01T06:22:38;13.20;;;3.28;;
71154;SDS011;59375;53.216;5.728;2022-08-01T06:25:04;15.65;;;3.95;;
71154;SDS011;59375;53.216;5.728;2022-08-01T06:27:30;16.40;;;3.78;;
71154;SDS011;59375;53.216;5.728;2022-08-01T06:29:58;13.13;;;3.28;;
71154;SDS011;59375;53.216;5.728;2022-08-01T06:32:24;12.90;;;2.95;;
71154;SDS011;59375;53.216;5.728;2022-08-01T06:34:51;16.33;;;3.35;;
71154;SDS011;59375;53.216;5.728;2022-08-01T06:37:18;11.75;;;3.03;;
71154;SDS011;59375;53.216;5.728;2022-08-01T06:39:43;15.82;;;3.20;;
71154;SDS011;59375;53.216;5.728;2022-08-01T06:42:09;12.80;;;3.15;;
71154;SDS011;59375;53.216;5.728;2022-08-01T06:44:35;15.57;;;3.38;;
71154;SDS011;59375;53.216;5.728;2022-08-01T06:47:01;12.50;;;2.70;;
71154;SDS011;59375;53.216;5.728;2022-08-01T06:49:26;11.88;;;2.95;;
71154;SDS011;59375;53.216;5.728;2022-08-01T06:51:52;14.73;;;3.25;;
71154;SDS011;59375;53.216;5.728;2022-08-01T06:54:17;10.10;;;2.75;;
71154;SDS011;59375;53.216;5.728;2022-08-01T06:56:44;12.82;;;3.10;;
71154;SDS011;59375;53.216;5.728;2022-08-01T06:59:10;12.55;;;3.45;;
71154;SDS011;59375;53.216;5.728;2022-08-01T07:01:35;12.82;;;3.25;;
71154;SDS011;59375;53.216;5.728;2022-08-01T07:04:01;15.25;;;3.25;;
71154;SDS011;59375;53.216;5.728;2022-08-01T07:06:27;10.43;;;2.63;;
71154;SDS011;59375;53.216;5.728;2022-08-01T07:08:53;9.63;;;2.78;;
71154;SDS011;59375;53.216;5.728;2022-08-01T07:11:19;12.00;;;2.90;;
71154;SDS011;59375;53.216;5.728;2022-08-01T07:13:45;12.00;;;2.95;;
71154;SDS011;59375;53.216;5.728;2022-08-01T07:16:11;8.88;;;2.47;;
71154;SDS011;59375;53.216;5.728;2022-08-01T07:18:38;11.50;;;2.70;;
71154;SDS011;59375;53.216;5.728;2022-08-01T07:21:04;11.52;;;2.92;;
71154;SDS011;59375;53.216;5.728;2022-08-01T07:23:29;11.13;;;2.83;;
71154;SDS011;59375;53.216;5.728;2022-08-01T07:25:55;13.73;;;3.67;;
71154;SDS011;59375;53.216;5.728;2022-08-01T07:28:20;13.23;;;3.15;;
71154;SDS011;59375;53.216;5.728;2022-08-01T07:30:46;8.98;;;2.55;;
71154;SDS011;59375;53.216;5.728;2022-08-01T07:33:11;11.10;;;2.47;;
71154;SDS011;59375;53.216;5.728;2022-08-01T07:35:39;11.43;;;2.78;;
71154;SDS011;59375;53.216;5.728;2022-08-01T07:38:06;12.25;;;2.75;;
71154;SDS011;59375;53.216;5.728;2022-08-01T07:40:32;9.80;;;2.90;;
71154;SDS011;59375;53.216;5.728;2022-08-01T07:42:58;11.18;;;2.75;;
71154;SDS011;59375;53.216;5.728;2022-08-01T07:45:23;12.40;;;2.92;;
71154;SDS011;59375;53.216;5.728;2022-08-01T07:47:49;11.38;;;2.53;;
71154;SDS011;59375;53.216;5.728;2022-08-01T07:50:17;7.88;;;2.40;;
71154;SDS011;59375;53.216;5.728;2022-08-01T07:52:46;11.70;;;2.60;;
71154;SDS011;59375;53.216;5.728;2022-08-01T07:55:14;11.77;;;2.58;;
71154;SDS011;59375;53.216;5.728;2022-08-01T07:57:40;12.75;;;2.70;;
71154;SDS011;59375;53.216;5.728;2022-08-01T08:00:06;11.77;;;2.60;;
71154;SDS011;59375;53.216;5.728;2022-08-01T08:02:33;9.25;;;2.50;;
71154;SDS011;59375;53.216;5.728;2022-08-01T08:05:00;12.40;;;3.00;;
71154;SDS011;59375;53.216;5.728;2022-08-01T08:07:27;12.05;;;2.80;;
71154;SDS011;59375;53.216;5.728;2022-08-01T08:09:52;6.95;;;2.20;;
71154;SDS011;59375;53.216;5.728;2022-08-01T08:12:18;11.40;;;2.67;;
71154;SDS011;59375;53.216;5.728;2022-08-01T08:14:43;10.80;;;2.50;;
71154;SDS011;59375;53.216;5.728;2022-08-01T08:17:09;10.38;;;2.60;;
71154;SDS011;59375;53.216;5.728;2022-08-01T08:19:34;9.77;;;2.53;;
71154;SDS011;59375;53.216;5.728;2022-08-01T08:22:02;12.38;;;2.55;;
71154;SDS011;59375;53.216;5.728;2022-08-01T08:24:28;10.38;;;3.42;;
71154;SDS011;59375;53.216;5.728;2022-08-01T08:26:55;9.90;;;2.40;;
71154;SDS011;59375;53.216;5.728;2022-08-01T08:29:23;7.53;;;2.35;;
71154;SDS011;59375;53.216;5.728;2022-08-01T08:31:51;14.23;;;2.85;;
71154;SDS011;59375;53.216;5.728;2022-08-01T08:34:18;9.60;;;2.42;;
71154;SDS011;59375;53.216;5.728;2022-08-01T08:36:45;9.45;;;2.60;;
71154;SDS011;59375;53.216;5.728;2022-08-01T08:39:11;10.05;;;2.22;;
71154;SDS011;59375;53.216;5.728;2022-08-01T08:41:37;12.00;;;2.67;;
71154;SDS011;59375;53.216;5.728;2022-08-01T08:44:03;7.68;;;2.30;;
71154;SDS011;59375;53.216;5.728;2022-08-01T08:46:30;10.30;;;2.83;;
71154;SDS011;59375;53.216;5.728;2022-08-01T08:49:00;10.77;;;2.58;;
71154;SDS011;59375;53.216;5.728;2022-08-01T08:51:28;11.95;;;2.45;;
71154;SDS011;59375;53.216;5.728;2022-08-01T08:53:57;7.60;;;2.55;;
71154;SDS011;59375;53.216;5.728;2022-08-01T08:56:23;11.48;;;2.53;;
71154;SDS011;59375;53.216;5.728;2022-08-01T08:58:50;11.32;;;2.67;;
71154;SDS011;59375;53.216;5.728;2022-08-01T09:01:16;10.52;;;2.70;;
71154;SDS011;59375;53.216;5.728;2022-08-01T09:03:42;8.13;;;2.35;;
71154;SDS011;59375;53.216;5.728;2022-08-01T09:06:08;9.68;;;2.60;;
71154;SDS011;59375;53.216;5.728;2022-08-01T09:08:35;6.03;;;2.13;;
71154;SDS011;59375;53.216;5.728;2022-08-01T09:11:00;10.88;;;2.50;;
71154;SDS011;59375;53.216;5.728;2022-08-01T09:13:26;9.80;;;2.50;;
71154;SDS011;59375;53.216;5.728;2022-08-01T09:15:53;7.90;;;2.45;;
71154;SDS011;59375;53.216;5.728;2022-08-01T09:18:27;9.65;;;2.75;;
71154;SDS011;59375;53.216;5.728;2022-08-01T09:23:39;9.93;;;2.42;;
71154;SDS011;59375;53.216;5.728;2022-08-01T09:26:09;10.23;;;2.40;;
71154;SDS011;59375;53.216;5.728;2022-08-01T09:28:36;11.52;;;2.95;;
71154;SDS011;59375;53.216;5.728;2022-08-01T09:31:05;8.30;;;2.20;;
71154;SDS011;59375;53.216;5.728;2022-08-01T09:36:21;12.70;;;2.40;;
71154;SDS011;59375;53.216;5.728;2022-08-01T09:38:49;10.50;;;2.45;;
71154;SDS011;59375;53.216;5.728;2022-08-01T09:41:16;9.85;;;2.60;;
71154;SDS011;59375;53.216;5.728;2022-08-01T09:43:49;8.40;;;2.40;;
71154;SDS011;59375;53.216;5.728;2022-08-01T09:46:15;6.85;;;2.10;;
71154;SDS011;59375;53.216;5.728;2022-08-01T09:48:59;8.15;;;2.35;;
71154;SDS011;59375;53.216;5.728;2022-08-01T09:51:36;6.65;;;2.20;;
71154;SDS011;59375;53.216;5.728;2022-08-01T09:54:04;9.00;;;2.25;;
71154;SDS011;59375;53.216;5.728;2022-08-01T09:56:41;7.82;;;2.35;;
71154;SDS011;59375;53.216;5.728;2022-08-01T09:59:11;7.93;;;2.40;;
71154;SDS011;59375;53.216;5.728;2022-08-01T10:01:45;8.93;;;2.58;;
71154;SDS011;59375;53.216;5.728;2022-08-01T10:04:13;11.23;;;2.45;;
71154;SDS011;59375;53.216;5.728;2022-08-01T10:06:45;8.13;;;2.47;;
71154;SDS011;59375;53.216;5.728;2022-08-01T10:09:30;9.13;;;2.50;;
71154;SDS011;59375;53.216;5.728;2022-08-01T10:11:57;5.30;;;1.92;;
71154;SDS011;59375;53.216;5.728;2022-08-01T10:14:25;12.75;;;2.50;;
71154;SDS011;59375;53.216;5.728;2022-08-01T10:16:56;9.40;;;2.30;;
71154;SDS011;59375;53.216;5.728;2022-08-01T10:19:24;7.15;;;2.30;;
71154;SDS011;59375;53.216;5.728;2022-08-01T10:21:52;6.68;;;2.10;;
71154;SDS011;59375;53.216;5.728;2022-08-01T10:24:22;8.82;;;2.33;;
71154;SDS011;59375;53.216;5.728;2022-08-01T10:26:50;9.05;;;2.50;;
71154;SDS011;59375;53.216;5.728;2022-08-01T10:29:19;7.90;;;2.10;;
71154;SDS011;59375;53.216;5.728;2022-08-01T10:31:46;6.25;;;1.95;;
71154;SDS011;59375;53.216;5.728;2022-08-01T10:34:12;8.18;;;2.28;;
71154;SDS011;59375;53.216;5.728;2022-08-01T10:36:41;5.53;;;1.98;;
71154;SDS011;59375;53.216;5.728;2022-08-01T10:39:10;7.22;;;2.05;;
71154;SDS011;59375;53.216;5.728;2022-08-01T10:41:36;7.60;;;2.03;;
71154;SDS011;59375;53.216;5.728;2022-08-01T10:44:03;7.60;;;2.00;;
71154;SDS011;59375;53.216;5.728;2022-08-01T10:46:31;7.70;;;2.20;;
71154;SDS011;59375;53.216;5.728;2022-08-01T10:49:03;7.13;;;2.10;;
71154;SDS011;59375;53.216;5.728;2022-08-01T10:51:34;8.43;;;2.10;;
71154;SDS011;59375;53.216;5.728;2022-08-01T10:54:04;7.75;;;2.60;;
71154;SDS011;59375;53.216;5.728;2022-08-01T10:56:38;7.95;;;1.80;;
71154;SDS011;59375;53.216;5.728;2022-08-01T10:59:05;13.13;;;2.33;;
71154;SDS011;59375;53.216;5.728;2022-08-01T11:01:31;8.43;;;2.40;;
71154;SDS011;59375;53.216;5.728;2022-08-01T11:08:58;8.07;;;2.22;;
71154;SDS011;59375;53.216;5.728;2022-08-01T11:11:26;10.30;;;2.67;;
71154;SDS011;59375;53.216;5.728;2022-08-01T11:18:52;7.22;;;2.22;;
71154;SDS011;59375;53.216;5.728;2022-08-01T11:21:18;7.50;;;2.10;;
71154;SDS011;59375;53.216;5.728;2022-08-01T11:23:47;9.00;;;2.00;;
71154;SDS011;59375;53.216;5.728;2022-08-01T11:26:15;5.50;;;2.00;;
71154;SDS011;59375;53.216;5.728;2022-08-01T11:28:41;6.05;;;2.10;;
71154;SDS011;59375;53.216;5.728;2022-08-01T11:41:27;8.05;;;2.10;;
71154;SDS011;59375;53.216;5.728;2022-08-01T11:43:56;6.78;;;2.30;;
71154;SDS011;59375;53.216;5.728;2022-08-01T11:52:11;5.28;;;1.90;;
71154;SDS011;59375;53.216;5.728;2022-08-01T11:54:45;6.72;;;2.15;;
71154;SDS011;59375;53.216;5.728;2022-08-01T11:57:13;5.50;;;2.13;;
71154;SDS011;59375;53.216;5.728;2022-08-01T11:59:43;8.30;;;2.13;;
71154;SDS011;59375;53.216;5.728;2022-08-01T12:02:15;5.38;;;1.92;;
71154;SDS011;59375;53.216;5.728;2022-08-01T12:05:23;6.05;;;2.10;;
71154;SDS011;59375;53.216;5.728;2022-08-01T12:07:32;8.02;;;2.05;;
71154;SDS011;59375;53.216;5.728;2022-08-01T12:10:09;5.70;;;2.00;;
71154;SDS011;59375;53.216;5.728;2022-08-01T12:12:36;7.20;;;2.13;;
71154;SDS011;59375;53.216;5.728;2022-08-01T12:15:07;5.45;;;1.80;;
71154;SDS011;59375;53.216;5.728;2022-08-01T12:17:38;6.32;;;2.10;;
71154;SDS011;59375;53.216;5.728;2022-08-01T12:20:07;5.57;;;1.90;;
71154;SDS011;59375;53.216;5.728;2022-08-01T12:22:38;6.35;;;2.17;;
71154;SDS011;59375;53.216;5.728;2022-08-01T12:27:34;4.70;;;1.92;;
71154;SDS011;59375;53.216;5.728;2022-08-01T12:30:00;7.05;;;1.90;;
71154;SDS011;59375;53.216;5.728;2022-08-01T12:32:34;6.43;;;2.03;;
71154;SDS011;59375;53.216;5.728;2022-08-01T12:35:11;7.30;;;2.40;;
71154;SDS011;59375;53.216;5.728;2022-08-01T12:37:56;8.20;;;2.20;;
71154;SDS011;59375;53.216;5.728;2022-08-01T12:40:22;8.82;;;2.28;;
71154;SDS011;59375;53.216;5.728;2022-08-01T12:43:00;6.57;;;2.13;;
71154;SDS011;59375;53.216;5.728;2022-08-01T12:45:33;5.95;;;1.98;;
71154;SDS011;59375;53.216;5.728;2022-08-01T12:48:14;5.50;;;1.83;;
71154;SDS011;59375;53.216;5.728;2022-08-01T12:50:41;7.43;;;2.20;;
71154;SDS011;59375;53.216;5.728;2022-08-01T12:53:08;6.65;;;2.10;;
71154;SDS011;59375;53.216;5.728;2022-08-01T12:55:45;7.60;;;2.38;;
71154;SDS011;59375;53.216;5.728;2022-08-01T12:58:13;7.13;;;1.98;;
71154;SDS011;59375;53.216;5.728;2022-08-01T13:00:40;7.85;;;2.03;;
71154;SDS011;59375;53.216;5.728;2022-08-01T13:03:10;6.20;;;2.00;;
71154;SDS011;59375;53.216;5.728;2022-08-01T13:05:49;7.22;;;2.28;;
71154;SDS011;59375;53.216;5.728;2022-08-01T13:08:18;6.85;;;2.10;;
71154;SDS011;59375;53.216;5.728;2022-08-01T13:10:44;5.78;;;2.05;;
71154;SDS011;59375;53.216;5.728;2022-08-01T13:13:11;6.78;;;2.03;;
71154;SDS011;59375;53.216;5.728;2022-08-01T13:15:38;5.93;;;2.03;;
71154;SDS011;59375;53.216;5.728;2022-08-01T13:24:05;8.13;;;2.42;;
71154;SDS011;59375;53.216;5.728;2022-08-01T13:26:46;8.82;;;2.28;;
71154;SDS011;59375;53.216;5.728;2022-08-01T13:29:17;7.47;;;2.30;;
71154;SDS011;59375;53.216;5.728;2022-08-01T13:31:44;6.78;;;2.22;;
71154;SDS011;59375;53.216;5.728;2022-08-01T13:34:10;6.32;;;2.17;;
71154;SDS011;59375;53.216;5.728;2022-08-01T13:36:36;6.70;;;2.10;;
71154;SDS011;59375;53.216;5.728;2022-08-01T13:39:02;10.40;;;2.47;;
71154;SDS011;59375;53.216;5.728;2022-08-01T13:41:47;7.25;;;2.40;;
71154;SDS011;59375;53.216;5.728;2022-08-01T13:44:13;6.63;;;2.10;;
71154;SDS011;59375;53.216;5.728;2022-08-01T13:46:39;6.63;;;1.90;;
71154;SDS011;59375;53.216;5.728;2022-08-01T13:49:06;8.13;;;2.20;;
71154;SDS011;59375;53.216;5.728;2022-08-01T13:51:33;5.50;;;2.05;;
71154;SDS011;59375;53.216;5.728;2022-08-01T13:54:00;6.40;;;2.00;;
71154;SDS011;59375;53.216;5.728;2022-08-01T13:56:26;7.03;;;2.38;;
71154;SDS011;59375;53.216;5.728;2022-08-01T13:58:53;7.93;;;2.10;;
71154;SDS011;59375;53.216;5.728;2022-08-01T14:01:19;7.88;;;2.20;;
71154;SDS011;59375;53.216;5.728;2022-08-01T14:03:45;8.05;;;2.60;;
71154;SDS011;59375;53.216;5.728;2022-08-01T14:06:11;6.97;;;2.20;;
71154;SDS011;59375;53.216;5.728;2022-08-01T14:08:37;7.60;;;2.10;;
71154;SDS011;59375;53.216;5.728;2022-08-01T14:11:02;7.63;;;2.03;;
71154;SDS011;59375;53.216;5.728;2022-08-01T14:13:28;7.47;;;2.33;;
71154;SDS011;59375;53.216;5.728;2022-08-01T14:15:53;6.47;;;2.10;;
71154;SDS011;59375;53.216;5.728;2022-08-01T14:18:19;7.38;;;2.17;;
71154;SDS011;59375;53.216;5.728;2022-08-01T14:20:45;7.47;;;2.10;;
71154;SDS011;59375;53.216;5.728;2022-08-01T14:23:12;6.30;;;2.10;;
71154;SDS011;59375;53.216;5.728;2022-08-01T14:25:38;10.68;;;2.55;;
71154;SDS011;59375;53.216;5.728;2022-08-01T14:28:05;8.02;;;1.88;;
71154;SDS011;59375;53.216;5.728;2022-08-01T14:30:31;7.82;;;2.22;;
71154;SDS011;59375;53.216;5.728;2022-08-01T14:32:57;7.40;;;2.30;;
71154;SDS011;59375;53.216;5.728;2022-08-01T14:35:23;8.10;;;2.30;;
71154;SDS011;59375;53.216;5.728;2022-08-01T14:37:48;7.15;;;2.10;;
71154;SDS011;59375;53.216;5.728;2022-08-01T14:40:14;8.40;;;2.10;;
71154;SDS011;59375;53.216;5.728;2022-08-01T14:42:39;8.27;;;2.20;;
71154;SDS011;59375;53.216;5.728;2022-08-01T14:45:05;7.28;;;2.15;;
71154;SDS011;59375;53.216;5.728;2022-08-01T14:47:40;5.82;;;2.03;;
71154;SDS011;59375;53.216;5.728;2022-08-01T14:50:12;5.32;;;1.90;;
71154;SDS011;59375;53.216;5.728;2022-08-01T14:52:39;6.57;;;2.05;;
71154;SDS011;59375;53.216;5.728;2022-08-01T14:55:06;5.47;;;1.80;;
71154;SDS011;59375;53.216;5.728;2022-08-01T14:57:32;7.32;;;2.10;;
71154;SDS011;59375;53.216;5.728;2022-08-01T14:59:59;8.10;;;2.08;;
71154;SDS011;59375;53.216;5.728;2022-08-01T15:02:24;6.35;;;2.20;;
71154;SDS011;59375;53.216;5.728;2022-08-01T15:04:50;5.75;;;1.92;;
71154;SDS011;59375;53.216;5.728;2022-08-01T15:07:16;5.45;;;2.10;;
71154;SDS011;59375;53.216;5.728;2022-08-01T15:09:42;6.75;;;2.15;;
71154;SDS011;59375;53.216;5.728;2022-08-01T15:12:09;8.73;;;2.00;;
71154;SDS011;59375;53.216;5.728;2022-08-01T15:14:35;6.30;;;2.20;;
71154;SDS011;59375;53.216;5.728;2022-08-01T15:17:23;6.80;;;2.00;;
71154;SDS011;59375;53.216;5.728;2022-08-01T15:19:53;9.20;;;2.15;;
71154;SDS011;59375;53.216;5.728;2022-08-01T15:22:21;8.48;;;2.20;;
71154;SDS011;59375;53.216;5.728;2022-08-01T15:24:48;5.75;;;1.80;;
71154;SDS011;59375;53.216;5.728;2022-08-01T15:27:14;7.60;;;2.20;;
71154;SDS011;59375;53.216;5.728;2022-08-01T15:29:39;6.05;;;1.92;;
71154;SDS011;59375;53.216;5.728;2022-08-01T15:32:05;5.18;;;2.03;;
71154;SDS011;59375;53.216;5.728;2022-08-01T15:34:32;8.05;;;2.10;;
71154;SDS011;59375;53.216;5.728;2022-08-01T15:36:58;5.03;;;1.85;;
71154;SDS011;59375;53.216;5.728;2022-08-01T15:39:23;5.40;;;1.88;;